Terminal Aerodrome Forecast
Issued by NWS Chicago, IL

Home | Current Version | Previous Version | Graphics & Text | Print | Product List | Glossary On
Versions: 1 2 3 4 5 6 7 8 9 10 11 12 13 14 15 16 17 18 19 20 21 22 23 24 25 26 27 28 29 30 31 32 33 34
000
FTUS43 KLOT 022300
TAFRFD
TAF
KRFD 022336Z 0300/0324 14005KT P6SM BKN080 OVC100
     FM030800 14011KT P6SM BKN050 OVC080
     FM031000 15013KT 1 1/2SM -SN BKN010 OVC030
     FM031400 16012G18KT 1SM -PLSN BR OVC007
     FM031500 17015G22KT 2SM -FZRAPL BR OVC004
     FM031700 20015G24KT 3SM -SHRA BR OVC006
     FM032000 22014G21KT 5SM -DZ BR OVC006=

USA.gov is the U.S. government's official web portal to all federal, state and local government web resources and services.